createdAt,value
2017-11-23T00:00:11.976Z,1002.33
2017-11-23T00:01:33.956Z,1002.28
2017-11-23T00:02:55.120Z,1002.29
2017-11-23T00:04:17.155Z,1002.3
2017-11-23T00:05:38.665Z,1002.26
2017-11-23T00:07:00.617Z,1002.21
2017-11-23T00:08:22.117Z,1002.31
2017-11-23T00:09:44.099Z,1002.28
2017-11-23T00:11:06.095Z,1002.42
2017-11-23T00:12:28.456Z,1002.36
2017-11-23T00:13:50.226Z,1002.36
2017-11-23T00:15:12.006Z,1002.34
2017-11-23T00:16:33.991Z,1002.33
2017-11-23T00:17:55.803Z,1002.35
2017-11-23T00:19:17.815Z,1002.41
2017-11-23T00:20:39.274Z,1002.32
2017-11-23T00:22:01.275Z,1002.32
2017-11-23T00:23:23.514Z,1002.32
2017-11-23T00:24:45.594Z,1002.22
2017-11-23T00:26:07.307Z,1002.28
2017-11-23T00:27:28.844Z,1002.29
2017-11-23T00:28:50.815Z,1002.35
2017-11-23T00:30:13.118Z,1002.33
2017-11-23T00:31:35.151Z,1002.34
2017-11-23T00:32:57.405Z,1002.37
2017-11-23T00:34:19.414Z,1002.34
2017-11-23T00:35:41.405Z,1002.4
2017-11-23T00:37:03.428Z,1002.39
2017-11-23T00:38:25.686Z,1002.33
2017-11-23T00:39:48.004Z,1002.36
2017-11-23T00:41:09.997Z,1002.38
2017-11-23T00:42:31.454Z,1002.39
2017-11-23T00:43:53.560Z,1002.37
2017-11-23T00:45:15.288Z,1002.35
2017-11-23T00:46:37.413Z,1002.37
2017-11-23T00:47:58.855Z,1002.37
2017-11-23T00:49:20.854Z,1002.37
2017-11-23T00:50:43.185Z,1002.31
2017-11-23T00:52:04.617Z,1002.3
2017-11-23T00:53:26.325Z,1002.36
2017-11-23T00:54:48.392Z,1002.4
2017-11-23T00:56:09.568Z,1002.37
2017-11-23T00:57:31.916Z,1002.47
2017-11-23T00:58:53.687Z,1002.44
2017-11-23T01:00:15.666Z,1002.38
2017-11-23T01:01:37.097Z,1002.36
2017-11-23T01:02:59.353Z,1002.31
2017-11-23T01:04:21.857Z,1002.28
2017-11-23T01:05:43.635Z,1002.31
2017-11-23T01:07:05.880Z,1002.31
2017-11-23T01:08:27.855Z,1002.29
2017-11-23T01:09:49.561Z,1002.29
2017-11-23T01:11:11.016Z,1002.22
2017-11-23T01:12:32.715Z,1002.19
2017-11-23T01:13:54.774Z,1002.19
2017-11-23T01:15:17.107Z,1002.25
2017-11-23T01:16:38.865Z,1002.25
2017-11-23T01:18:00.596Z,1002.16
2017-11-23T01:19:22.325Z,1002.2
2017-11-23T01:20:44.019Z,1002.21
2017-11-23T01:22:05.466Z,1002.19
2017-11-23T01:23:27.474Z,1002.21
2017-11-23T01:24:49.000Z,1002.14
2017-11-23T01:26:10.731Z,1002.16
2017-11-23T01:27:32.986Z,1002.18
2017-11-23T01:28:54.666Z,1002.1
2017-11-23T01:30:16.815Z,1002.13
2017-11-23T01:31:38.525Z,1002.08
2017-11-23T01:33:00.238Z,1002.04
2017-11-23T01:34:22.749Z,1002.03
2017-11-23T01:35:44.744Z,1002.03
2017-11-23T01:37:06.455Z,1001.99
2017-11-23T01:38:28.035Z,1002
2017-11-23T01:39:49.755Z,1001.93
2017-11-23T01:41:11.733Z,1001.9
2017-11-23T01:42:33.720Z,1001.92
2017-11-23T01:43:55.754Z,1001.85
2017-11-23T01:45:17.446Z,1001.81
2017-11-23T01:46:38.976Z,1001.83
2017-11-23T01:48:00.978Z,1001.88
2017-11-23T01:49:22.755Z,1001.77
2017-11-23T01:50:44.505Z,1001.78
2017-11-23T01:52:06.362Z,1001.8
2017-11-23T01:53:28.686Z,1001.79
2017-11-23T01:54:50.126Z,1001.78
2017-11-23T01:56:12.374Z,1001.84
2017-11-23T01:57:34.644Z,1001.85
2017-11-23T01:58:56.342Z,1001.84
2017-11-23T02:00:17.797Z,1001.8
2017-11-23T02:01:40.046Z,1001.7
2017-11-23T02:03:02.295Z,1001.75
2017-11-23T02:04:23.256Z,1001.78
2017-11-23T02:05:45.505Z,1001.77
2017-11-23T02:07:07.737Z,1001.75
2017-11-23T02:08:29.190Z,1001.76
2017-11-23T02:09:50.720Z,1001.75
2017-11-23T02:11:12.697Z,1001.74
2017-11-23T02:12:34.767Z,1001.82
2017-11-23T02:13:56.794Z,1001.82
2017-11-23T02:15:18.895Z,1001.78
2017-11-23T02:16:40.886Z,1001.83
2017-11-23T02:18:02.318Z,1001.79
2017-11-23T02:19:23.745Z,1001.82
2017-11-23T02:20:45.455Z,1001.82
2017-11-23T02:22:07.447Z,1001.79
2017-11-23T02:23:29.278Z,1001.79
2017-11-23T02:24:50.879Z,1001.75
2017-11-23T02:26:12.638Z,1001.77
2017-11-23T02:27:34.765Z,1001.79
2017-11-23T02:28:56.778Z,1001.87
2017-11-23T02:30:18.207Z,1001.9
2017-11-23T02:31:39.746Z,1001.86
2017-11-23T02:33:01.497Z,1001.83
2017-11-23T02:34:23.468Z,1001.8
2017-11-23T02:35:45.618Z,1001.83
2017-11-23T02:37:07.066Z,1001.86
2017-11-23T02:38:29.035Z,1001.82
2017-11-23T02:39:51.037Z,1001.74
2017-11-23T02:41:12.755Z,1001.76
2017-11-23T02:42:34.209Z,1001.79
2017-11-23T02:43:55.357Z,1001.76
2017-11-23T02:45:17.397Z,1001.81
2017-11-23T02:46:39.358Z,1001.75
2017-11-23T02:48:01.068Z,1001.75
2017-11-23T02:49:23.130Z,1001.76
2017-11-23T02:50:45.136Z,1001.68
2017-11-23T02:52:06.581Z,1001.65
2017-11-23T02:53:28.299Z,1001.64
2017-11-23T02:54:50.008Z,1001.62
2017-11-23T02:56:11.877Z,1001.56
2017-11-23T02:57:33.650Z,1001.57
2017-11-23T02:58:55.674Z,1001.57
2017-11-23T03:00:17.132Z,1001.5
2017-11-23T03:01:38.816Z,1001.56
2017-11-23T03:03:00.936Z,1001.45
2017-11-23T03:04:22.748Z,1001.46
2017-11-23T03:05:44.716Z,1001.45
2017-11-23T03:07:06.487Z,1001.41
2017-11-23T03:08:28.224Z,1001.43
2017-11-23T03:09:49.954Z,1001.43
2017-11-23T03:11:11.806Z,1001.37
2017-11-23T03:12:33.539Z,1001.38
2017-11-23T03:13:55.366Z,1001.34
2017-11-23T03:15:17.059Z,1001.33
2017-11-23T03:16:38.784Z,1001.32
2017-11-23T03:18:00.606Z,1001.3
2017-11-23T03:19:22.740Z,1001.23
2017-11-23T03:20:44.166Z,1001.21
2017-11-23T03:22:05.972Z,1001.28
2017-11-23T03:23:27.146Z,1001.21
2017-11-23T03:24:49.233Z,1001.24
2017-11-23T03:26:11.217Z,1001.14
2017-11-23T03:27:33.279Z,1001.09
2017-11-23T03:28:54.740Z,1001.05
2017-11-23T03:30:16.708Z,1001.02
2017-11-23T03:31:38.674Z,1001.05
2017-11-23T03:32:59.847Z,1001.06
2017-11-23T03:34:21.853Z,1001.07
2017-11-23T03:35:43.903Z,1001.07
2017-11-23T03:37:06.111Z,1001.01
2017-11-23T03:38:27.872Z,1001.02
2017-11-23T03:39:49.533Z,1000.99
2017-11-23T03:41:11.372Z,1000.97
2017-11-23T03:42:32.894Z,1000.96
2017-11-23T03:43:54.628Z,1000.95
2017-11-23T03:45:16.356Z,1000.86
2017-11-23T03:46:38.061Z,1000.91
2017-11-23T03:47:59.891Z,1000.81
2017-11-23T03:49:21.674Z,1000.79
2017-11-23T03:50:43.675Z,1000.82
2017-11-23T03:52:05.177Z,1000.79
2017-11-23T03:53:26.902Z,1000.74
2017-11-23T03:54:48.697Z,1000.7
2017-11-23T03:56:09.913Z,1000.69
2017-11-23T03:57:31.641Z,1000.68
2017-11-23T03:58:53.346Z,1000.68
2017-11-23T04:00:15.326Z,1000.71
2017-11-23T04:01:37.328Z,1000.68
2017-11-23T04:02:59.036Z,1000.72
2017-11-23T04:04:20.854Z,1000.67
2017-11-23T04:05:42.012Z,1000.67
2017-11-23T04:07:03.840Z,1000.68
2017-11-23T04:08:25.579Z,1000.67
2017-11-23T04:09:47.410Z,1000.62
2017-11-23T04:11:09.737Z,1000.66
2017-11-23T04:12:31.202Z,1000.69
2017-11-23T04:13:53.267Z,1000.62
2017-11-23T04:15:15.266Z,1000.58
2017-11-23T04:16:36.707Z,1000.62
2017-11-23T04:17:58.899Z,1000.62
2017-11-23T04:19:20.068Z,1000.64
2017-11-23T04:20:42.387Z,1000.61
2017-11-23T04:22:03.585Z,1000.54
2017-11-23T04:23:25.105Z,1000.53
2017-11-23T04:24:47.075Z,1000.46
2017-11-23T04:26:08.314Z,1000.5
2017-11-23T04:27:30.314Z,1000.51
2017-11-23T04:28:52.084Z,1000.43
2017-11-23T04:30:13.277Z,1000.44
2017-11-23T04:31:35.022Z,1000.42
2017-11-23T04:32:56.858Z,1000.43
2017-11-23T04:34:18.035Z,1000.36
2017-11-23T04:35:39.725Z,1000.32
2017-11-23T04:37:01.288Z,1000.35
2017-11-23T04:38:23.015Z,1000.33
2017-11-23T04:39:44.755Z,1000.33
2017-11-23T04:41:06.469Z,1000.29
2017-11-23T04:42:28.214Z,1000.26
2017-11-23T04:43:49.485Z,1000.28
2017-11-23T04:45:10.713Z,1000.33
2017-11-23T04:46:32.736Z,1000.31
2017-11-23T04:47:54.745Z,1000.34
2017-11-23T04:49:16.732Z,1000.26
2017-11-23T04:50:38.715Z,1000.19
2017-11-23T04:51:59.650Z,1000.13
2017-11-23T04:53:21.895Z,1000.17
2017-11-23T04:54:43.407Z,1000.17
2017-11-23T04:56:05.466Z,1000.29
2017-11-23T04:57:26.753Z,1000.23
2017-11-23T04:58:49.056Z,1000.27
2017-11-23T05:00:10.494Z,1000.29
2017-11-23T05:01:31.685Z,1000.3
2017-11-23T05:02:53.381Z,1000.37
2017-11-23T05:04:14.863Z,1000.41
2017-11-23T05:05:36.586Z,1000.43
2017-11-23T05:06:57.996Z,1000.45
2017-11-23T05:08:19.204Z,1000.45
2017-11-23T05:09:40.705Z,1000.47
2017-11-23T05:11:02.157Z,1000.48
2017-11-23T05:12:23.896Z,1000.48
2017-11-23T05:13:45.159Z,1000.53
2017-11-23T05:15:06.413Z,1000.47
2017-11-23T05:16:28.423Z,1000.38
2017-11-23T05:17:49.872Z,1000.38
2017-11-23T05:19:11.306Z,1000.36
2017-11-23T05:20:33.617Z,1000.34
2017-11-23T05:21:55.117Z,1000.34
2017-11-23T05:23:17.085Z,1000.32
2017-11-23T05:24:39.196Z,1000.28
2017-11-23T05:26:00.907Z,1000.33
2017-11-23T05:27:22.615Z,1000.32
2017-11-23T05:28:44.110Z,1000.4
2017-11-23T05:30:05.827Z,1000.43
2017-11-23T05:31:27.834Z,1000.49
2017-11-23T05:32:49.588Z,1000.46
2017-11-23T05:34:11.555Z,1000.51
2017-11-23T05:35:32.710Z,1000.5
2017-11-23T05:36:54.694Z,1000.56
2017-11-23T05:38:15.899Z,1000.64
2017-11-23T05:39:37.978Z,1000.68
2017-11-23T05:40:59.732Z,1000.68
2017-11-23T05:42:21.447Z,1000.74
2017-11-23T05:43:43.183Z,1000.66
2017-11-23T05:45:04.842Z,1000.67
2017-11-23T05:46:26.822Z,1000.59
2017-11-23T05:47:48.265Z,1000.6
2017-11-23T05:49:10.385Z,1000.62
2017-11-23T05:50:32.254Z,1000.6
2017-11-23T05:51:54.266Z,1000.64
2017-11-23T05:53:15.959Z,1000.71
2017-11-23T05:54:37.701Z,1000.72
2017-11-23T05:55:59.709Z,1000.65
2017-11-23T05:57:21.413Z,1000.64
2017-11-23T05:58:43.148Z,1000.66
2017-11-23T06:00:04.997Z,1000.57
2017-11-23T06:01:27.175Z,1000.53
2017-11-23T06:02:48.889Z,1000.52
2017-11-23T06:04:10.093Z,1000.52
2017-11-23T06:05:32.073Z,1000.5
2017-11-23T06:06:54.732Z,1000.49
2017-11-23T06:08:16.590Z,1000.55
2017-11-23T06:09:38.313Z,1000.59
2017-11-23T06:11:00.284Z,1000.6
2017-11-23T06:12:22.930Z,1000.57
2017-11-23T06:13:44.652Z,1000.53
2017-11-23T06:15:06.931Z,1000.55
2017-11-23T06:16:28.386Z,1000.52
2017-11-23T06:17:50.441Z,1000.56
2017-11-23T06:19:12.695Z,1000.48
2017-11-23T06:20:34.387Z,1000.44
2017-11-23T06:21:56.131Z,1000.4
2017-11-23T06:23:17.624Z,1000.36
2017-11-23T06:24:39.406Z,1000.38
2017-11-23T06:26:01.406Z,1000.36
2017-11-23T06:27:23.285Z,1000.38
2017-11-23T06:28:45.006Z,1000.32
2017-11-23T06:30:07.412Z,1000.45
2017-11-23T06:31:28.553Z,1000.44
2017-11-23T06:32:50.819Z,1000.5
2017-11-23T06:34:13.083Z,1000.53
2017-11-23T06:35:34.796Z,1000.55
2017-11-23T06:36:56.813Z,1000.63
2017-11-23T06:38:18.704Z,1000.54
2017-11-23T06:39:39.592Z,1000.56
2017-11-23T06:41:01.014Z,1000.55
2017-11-23T06:42:22.462Z,1000.53
2017-11-23T06:43:44.393Z,1000.51
2017-11-23T06:45:06.637Z,1000.5
2017-11-23T06:46:28.378Z,1000.46
2017-11-23T06:47:50.161Z,1000.41
2017-11-23T06:49:11.917Z,1000.46
2017-11-23T06:50:34.429Z,1000.42
2017-11-23T06:51:56.134Z,1000.33
2017-11-23T06:53:17.715Z,1000.31
2017-11-23T06:54:39.014Z,1000.41
2017-11-23T06:56:00.507Z,1000.35
2017-11-23T06:57:22.513Z,1000.37
2017-11-23T06:58:44.756Z,1000.25
2017-11-23T07:00:06.740Z,1000.32
2017-11-23T07:01:28.639Z,1000.33
2017-11-23T07:02:50.145Z,1000.3
2017-11-23T07:04:12.114Z,1000.29
2017-11-23T07:05:34.253Z,1000.26
2017-11-23T07:06:56.254Z,1000.18
2017-11-23T07:08:18.015Z,1000.14
2017-11-23T07:09:39.762Z,1000.21
2017-11-23T07:11:01.336Z,1000.12
2017-11-23T07:12:23.858Z,1000.02
2017-11-23T07:13:45.847Z,999.86
2017-11-23T07:15:07.555Z,999.92
2017-11-23T07:16:29.080Z,999.89
2017-11-23T07:17:51.047Z,999.94
2017-11-23T07:19:12.888Z,1000.01
2017-11-23T07:20:34.624Z,999.92
2017-11-23T07:21:56.621Z,999.91
2017-11-23T07:23:18.712Z,999.74
2017-11-23T07:24:40.565Z,999.67
2017-11-23T07:26:02.875Z,999.66
2017-11-23T07:27:24.046Z,999.81
2017-11-23T07:28:46.568Z,999.78
2017-11-23T07:30:08.899Z,999.88
2017-11-23T07:31:30.899Z,999.97
2017-11-23T07:32:52.627Z,1000.06
2017-11-23T07:34:15.346Z,1000.03
2017-11-23T07:35:37.385Z,1000.08
2017-11-23T07:36:59.397Z,1000.08
2017-11-23T07:38:21.405Z,1000.05
2017-11-23T07:39:42.898Z,1000.13
2017-11-23T07:41:04.604Z,1000.31
2017-11-23T07:42:26.604Z,1000.26
2017-11-23T07:43:48.667Z,1000.16
2017-11-23T07:45:10.655Z,1000.13
2017-11-23T07:46:32.757Z,1000.17
2017-11-23T07:47:54.185Z,1000.02
2017-11-23T07:49:16.205Z,1000.14
2017-11-23T07:50:37.926Z,1000.08
2017-11-23T07:51:59.913Z,1000.06
2017-11-23T07:53:22.186Z,1000.05
2017-11-23T07:54:44.154Z,1000.04
2017-11-23T07:56:06.437Z,1000.06
2017-11-23T07:57:27.893Z,1000.03
2017-11-23T07:58:49.624Z,1000.07
2017-11-23T08:00:11.130Z,1000.05
2017-11-23T08:01:32.563Z,1000.03
2017-11-23T08:02:54.014Z,1000
2017-11-23T08:04:16.334Z,999.99
2017-11-23T08:05:38.053Z,999.92
2017-11-23T08:06:59.873Z,999.84
2017-11-23T08:08:21.596Z,999.92
2017-11-23T08:09:43.046Z,999.86
2017-11-23T08:11:04.772Z,999.92
2017-11-23T08:12:27.017Z,999.9
2017-11-23T08:13:49.000Z,999.91
2017-11-23T08:15:10.734Z,999.93
2017-11-23T08:16:32.448Z,999.8
2017-11-23T08:17:53.906Z,999.8
2017-11-23T08:19:15.627Z,999.77
2017-11-23T08:20:37.631Z,999.71
2017-11-23T08:21:59.355Z,999.68
2017-11-23T08:23:21.065Z,999.68
2017-11-23T08:24:42.504Z,999.69
2017-11-23T08:26:04.606Z,999.57
2017-11-23T08:27:26.885Z,999.65
2017-11-23T08:28:48.391Z,999.69
2017-11-23T08:30:10.499Z,999.71
2017-11-23T08:31:32.770Z,999.71
2017-11-23T08:32:54.480Z,999.71
2017-11-23T08:34:16.163Z,999.68
2017-11-23T08:35:37.597Z,999.66
2017-11-23T08:36:59.582Z,999.52
2017-11-23T08:38:21.507Z,999.61
2017-11-23T08:39:43.524Z,999.62
2017-11-23T08:41:05.503Z,999.58
2017-11-23T08:42:26.971Z,999.59
2017-11-23T08:43:48.162Z,999.56
2017-11-23T08:45:09.955Z,999.61
2017-11-23T08:46:32.235Z,999.62
2017-11-23T08:47:54.258Z,999.77
2017-11-23T08:49:15.987Z,999.73
2017-11-23T08:50:37.763Z,999.71
2017-11-23T08:52:00.138Z,999.74
2017-11-23T08:53:21.595Z,999.75
2017-11-23T08:54:42.815Z,999.62
2017-11-23T08:56:04.818Z,999.67
2017-11-23T08:57:26.236Z,999.66
2017-11-23T08:58:47.976Z,999.69
2017-11-23T09:00:09.993Z,999.7
2017-11-23T09:01:32.128Z,999.71
2017-11-23T09:02:52.764Z,999.73
2017-11-23T09:04:14.473Z,999.73
2017-11-23T09:05:36.281Z,999.72
2017-11-23T09:06:57.820Z,999.71
2017-11-23T09:08:19.587Z,999.68
2017-11-23T09:09:41.629Z,999.75
2017-11-23T09:11:03.349Z,999.66
2017-11-23T09:12:25.360Z,999.67
2017-11-23T09:13:47.630Z,999.69
2017-11-23T09:15:09.619Z,999.68
2017-11-23T09:16:31.594Z,999.61
2017-11-23T09:17:53.034Z,999.58
2017-11-23T09:19:15.405Z,999.56
2017-11-23T09:20:37.131Z,999.56
2017-11-23T09:21:59.134Z,999.63
2017-11-23T09:23:20.884Z,999.62
2017-11-23T09:24:42.628Z,999.57
2017-11-23T09:26:04.606Z,999.54
2017-11-23T09:27:26.870Z,999.56
2017-11-23T09:28:48.723Z,999.57
2017-11-23T09:30:10.802Z,999.5
2017-11-23T09:31:32.546Z,999.56
2017-11-23T09:32:54.368Z,999.51
2017-11-23T09:34:16.094Z,999.53
2017-11-23T09:35:38.089Z,999.51
2017-11-23T09:36:59.835Z,999.34
2017-11-23T09:38:21.817Z,999.38
2017-11-23T09:39:43.544Z,999.34
2017-11-23T09:41:05.620Z,999.36
2017-11-23T09:42:27.701Z,999.41
2017-11-23T09:43:49.428Z,999.44
2017-11-23T09:45:10.789Z,999.49
2017-11-23T09:46:32.528Z,999.49
2017-11-23T09:47:54.805Z,999.41
2017-11-23T09:49:16.505Z,999.38
2017-11-23T09:50:37.678Z,999.4
2017-11-23T09:51:59.429Z,999.4
2017-11-23T09:53:21.163Z,999.42
2017-11-23T09:54:43.147Z,999.46
2017-11-23T09:56:05.233Z,999.41
2017-11-23T09:57:26.920Z,999.41
2017-11-23T09:58:48.633Z,999.24
2017-11-23T10:00:10.175Z,999.3
2017-11-23T10:01:31.685Z,999.3
2017-11-23T10:02:53.195Z,999.31
2017-11-23T10:04:14.724Z,999.38
2017-11-23T10:05:36.854Z,999.43
2017-11-23T10:06:58.587Z,999.4
2017-11-23T10:08:20.420Z,999.33
2017-11-23T10:09:42.423Z,999.35
2017-11-23T10:11:04.145Z,999.38
2017-11-23T10:12:25.585Z,999.37
2017-11-23T10:13:47.099Z,999.4
2017-11-23T10:15:08.940Z,999.46
2017-11-23T10:16:30.652Z,999.35
2017-11-23T10:17:52.887Z,999.37
2017-11-23T10:19:14.350Z,999.39
2017-11-23T10:20:35.804Z,999.36
2017-11-23T10:21:58.061Z,999.38
2017-11-23T10:23:20.151Z,999.4
2017-11-23T10:24:42.420Z,999.29
2017-11-23T10:26:04.127Z,999.43
2017-11-23T10:27:25.578Z,999.36
2017-11-23T10:28:47.332Z,999.47
2017-11-23T10:30:09.823Z,999.42
2017-11-23T10:31:31.852Z,999.39
2017-11-23T10:32:53.344Z,999.36
2017-11-23T10:34:15.413Z,999.32
2017-11-23T10:35:37.405Z,999.32
2017-11-23T10:36:58.949Z,999.36
2017-11-23T10:38:20.373Z,999.33
2017-11-23T10:39:42.075Z,999.35
2017-11-23T10:41:03.801Z,999.27
2017-11-23T10:42:25.620Z,999.28
2017-11-23T10:43:47.367Z,999.41
2017-11-23T10:45:08.562Z,999.39
2017-11-23T10:46:30.618Z,999.35
2017-11-23T10:47:52.638Z,999.36
2017-11-23T10:49:14.081Z,999.35
2017-11-23T10:50:36.149Z,999.42
2017-11-23T10:51:58.181Z,999.44
2017-11-23T10:53:19.624Z,999.34
2017-11-23T10:54:41.085Z,999.24
2017-11-23T10:56:02.864Z,999.2
2017-11-23T10:57:24.047Z,999.3
2017-11-23T10:58:45.484Z,999.29
2017-11-23T11:00:07.607Z,999.32
2017-11-23T11:01:29.335Z,999.4
2017-11-23T11:02:50.827Z,999.37
2017-11-23T11:04:12.619Z,999.43
2017-11-23T11:05:34.095Z,999.33
2017-11-23T11:06:56.086Z,999.39
2017-11-23T11:08:18.517Z,999.39
2017-11-23T11:09:40.543Z,999.38
2017-11-23T11:11:02.264Z,999.48
2017-11-23T11:12:24.342Z,999.41
2017-11-23T11:13:45.795Z,999.5
2017-11-23T11:15:07.540Z,999.39
2017-11-23T11:16:29.555Z,999.39
2017-11-23T11:17:51.039Z,999.48
2017-11-23T11:19:12.756Z,999.52
2017-11-23T11:20:34.803Z,999.38
2017-11-23T11:21:56.824Z,999.51
2017-11-23T11:23:18.910Z,999.57
2017-11-23T11:24:40.914Z,999.53
2017-11-23T11:26:02.912Z,999.58
2017-11-23T11:27:24.769Z,999.62
2017-11-23T11:28:46.519Z,999.61
2017-11-23T11:30:08.897Z,999.52
2017-11-23T11:31:30.645Z,999.56
2017-11-23T11:32:52.374Z,999.72
2017-11-23T11:34:13.649Z,999.7
2017-11-23T11:35:35.654Z,999.78
2017-11-23T11:36:56.850Z,999.64
2017-11-23T11:38:18.562Z,999.69
2017-11-23T11:39:40.024Z,999.81
2017-11-23T11:41:01.867Z,999.73
2017-11-23T11:42:23.352Z,999.75
2017-11-23T11:43:45.556Z,999.82
2017-11-23T11:45:07.014Z,999.81
2017-11-23T11:46:28.485Z,999.8
2017-11-23T11:47:49.670Z,999.75
2017-11-23T11:49:11.931Z,999.81
2017-11-23T11:50:33.396Z,999.9
2017-11-23T11:51:55.144Z,999.87
2017-11-23T11:53:17.195Z,999.89
2017-11-23T11:54:39.189Z,999.96
2017-11-23T11:56:00.093Z,999.86
2017-11-23T11:57:21.904Z,1000
2017-11-23T11:58:43.366Z,999.92
2017-11-23T12:00:05.087Z,1000.09
2017-11-23T12:01:26.885Z,1000.06
2017-11-23T12:02:49.183Z,1000.04
2017-11-23T12:04:11.467Z,1000.05
2017-11-23T12:05:33.469Z,1000.16
2017-11-23T12:06:55.523Z,1000.22
2017-11-23T12:08:17.522Z,1000.14
2017-11-23T12:09:39.098Z,1000.19
2017-11-23T12:11:01.063Z,1000.34
2017-11-23T12:12:22.997Z,1000.3
2017-11-23T12:13:45.017Z,1000.26
2017-11-23T12:15:06.728Z,1000.44
2017-11-23T12:16:28.789Z,1000.29
2017-11-23T12:17:50.396Z,1000.39
2017-11-23T12:19:12.407Z,1000.4
2017-11-23T12:20:33.947Z,1000.45
2017-11-23T12:21:55.096Z,1000.47
2017-11-23T12:23:17.082Z,1000.37
2017-11-23T12:24:38.800Z,1000.54
2017-11-23T12:26:00.245Z,1000.5
2017-11-23T12:27:22.537Z,1000.44
2017-11-23T12:28:43.770Z,1000.57
2017-11-23T12:30:05.777Z,1000.61
2017-11-23T12:31:28.000Z,1000.64
2017-11-23T12:32:49.785Z,1000.49
2017-11-23T12:34:11.558Z,1000.59
2017-11-23T12:35:33.672Z,1000.59
2017-11-23T12:36:55.671Z,1000.65
2017-11-23T12:38:16.914Z,1000.79
2017-11-23T12:39:38.204Z,1000.64
2017-11-23T12:40:59.966Z,1000.68
2017-11-23T12:42:21.951Z,1000.69
2017-11-23T12:43:43.124Z,1000.73
2017-11-23T12:45:04.677Z,1000.73
2017-11-23T12:46:26.968Z,1000.7
2017-11-23T12:47:48.461Z,1000.74
2017-11-23T12:49:10.092Z,1000.68
2017-11-23T12:50:32.111Z,1000.69
2017-11-23T12:51:53.607Z,1000.67
2017-11-23T12:53:15.639Z,1000.67
2017-11-23T12:54:37.955Z,1000.68
2017-11-23T12:55:59.728Z,1000.73
2017-11-23T12:57:21.502Z,1000.78
2017-11-23T12:58:43.803Z,1000.7
2017-11-23T13:00:05.594Z,1000.87
2017-11-23T13:01:27.314Z,1000.92
2017-11-23T13:02:49.284Z,1000.88
2017-11-23T13:04:11.337Z,1000.89
2017-11-23T13:05:33.375Z,1000.96
2017-11-23T13:06:54.859Z,1000.9
2017-11-23T13:08:16.576Z,1000.96
2017-11-23T13:09:38.603Z,1001.01
2017-11-23T13:11:00.306Z,1001
2017-11-23T13:12:22.748Z,1001.16
2017-11-23T13:13:44.200Z,1001.01
2017-11-23T13:15:05.912Z,1001.1
2017-11-23T13:16:27.661Z,1001.17
2017-11-23T13:17:49.464Z,1001.18
2017-11-23T13:19:11.735Z,1001.2
2017-11-23T13:20:33.457Z,1001.23
2017-11-23T13:21:55.458Z,1001.22
2017-11-23T13:23:17.176Z,1001.35
2017-11-23T13:24:38.921Z,1001.4
2017-11-23T13:26:00.481Z,1001.29
2017-11-23T13:27:22.245Z,1001.33
2017-11-23T13:28:44.586Z,1001.33
2017-11-23T13:30:06.921Z,1001.41
2017-11-23T13:31:29.251Z,1001.4
2017-11-23T13:32:50.717Z,1001.43
2017-11-23T13:34:12.897Z,1001.43
2017-11-23T13:35:34.899Z,1001.41
2017-11-23T13:36:57.230Z,1001.48
2017-11-23T13:38:18.691Z,1001.44
2017-11-23T13:39:40.454Z,1001.42
2017-11-23T13:41:02.800Z,1001.48
2017-11-23T13:42:24.539Z,1001.49
2017-11-23T13:43:46.260Z,1001.49
2017-11-23T13:45:08.378Z,1001.46
2017-11-23T13:46:30.120Z,1001.54
2017-11-23T13:47:51.860Z,1001.49
2017-11-23T13:49:13.597Z,1001.53
2017-11-23T13:50:34.878Z,1001.51
2017-11-23T13:51:56.997Z,1001.5
2017-11-23T13:53:18.839Z,1001.53
2017-11-23T13:54:41.005Z,1001.48
2017-11-23T13:56:02.231Z,1001.53
2017-11-23T13:57:24.275Z,1001.48
2017-11-23T13:58:46.002Z,1001.47
2017-11-23T14:00:08.039Z,1001.42
2017-11-23T14:01:30.385Z,1001.53
2017-11-23T14:02:52.789Z,1001.45
2017-11-23T14:04:13.984Z,1001.47
2017-11-23T14:05:35.993Z,1001.46
2017-11-23T14:06:57.680Z,1001.48
2017-11-23T14:08:19.410Z,1001.48
2017-11-23T14:09:41.866Z,1001.5
2017-11-23T14:11:03.889Z,1001.44
2017-11-23T14:12:25.879Z,1001.53
2017-11-23T14:13:47.777Z,1001.57
2017-11-23T14:15:10.076Z,1001.57
2017-11-23T14:16:31.839Z,1001.6
2017-11-23T14:17:54.100Z,1001.57
2017-11-23T14:19:16.143Z,1001.58
2017-11-23T14:20:38.427Z,1001.59
2017-11-23T14:22:00.176Z,1001.59
2017-11-23T14:23:22.457Z,1001.66
2017-11-23T14:24:44.216Z,1001.67
2017-11-23T14:26:05.927Z,1001.7
2017-11-23T14:27:27.921Z,1001.67
2017-11-23T14:28:49.503Z,1001.59
2017-11-23T14:30:11.776Z,1001.62
2017-11-23T14:31:33.334Z,1001.54
2017-11-23T14:32:55.608Z,1001.61
2017-11-23T14:34:17.349Z,1001.61
2017-11-23T14:35:39.065Z,1001.61
2017-11-23T14:37:00.537Z,1001.6
2017-11-23T14:38:22.559Z,1001.62
2017-11-23T14:39:44.699Z,1001.59
2017-11-23T14:41:06.705Z,1001.64
2017-11-23T14:42:28.451Z,1001.65
2017-11-23T14:43:50.526Z,1001.67
2017-11-23T14:45:12.562Z,1001.73
2017-11-23T14:46:34.567Z,1001.7
2017-11-23T14:47:56.548Z,1001.71
2017-11-23T14:49:18.379Z,1001.72
2017-11-23T14:50:40.129Z,1001.78
2017-11-23T14:52:02.418Z,1001.72
2017-11-23T14:53:24.227Z,1001.7
2017-11-23T14:54:46.357Z,1001.68
2017-11-23T14:56:08.085Z,1001.68
2017-11-23T14:57:29.918Z,1001.65
2017-11-23T14:58:51.923Z,1001.65
2017-11-23T15:00:13.672Z,1001.63
2017-11-23T15:01:36.071Z,1001.66
2017-11-23T15:02:58.096Z,1001.64
2017-11-23T15:04:19.842Z,1001.72
2017-11-23T15:05:42.151Z,1001.61
2017-11-23T15:07:04.012Z,1001.62
2017-11-23T15:08:26.009Z,1001.65
2017-11-23T15:09:48.018Z,1001.68
2017-11-23T15:11:10.316Z,1001.69
2017-11-23T15:12:32.327Z,1001.74
2017-11-23T15:13:54.365Z,1001.77
2017-11-23T15:15:16.635Z,1001.79
2017-11-23T15:16:38.204Z,1001.82
2017-11-23T15:17:59.726Z,1001.78
2017-11-23T15:19:21.754Z,1001.78
2017-11-23T15:20:43.477Z,1001.82
2017-11-23T15:22:05.524Z,1001.83
2017-11-23T15:23:27.256Z,1001.86
2017-11-23T15:24:49.276Z,1001.87
2017-11-23T15:26:11.297Z,1001.79
2017-11-23T15:27:32.834Z,1001.91
2017-11-23T15:28:54.837Z,1001.86
2017-11-23T15:30:16.865Z,1001.98
2017-11-23T15:31:38.667Z,1001.9
2017-11-23T15:33:00.388Z,1002.01
2017-11-23T15:34:21.867Z,1001.95
2017-11-23T15:35:44.185Z,1001.97
2017-11-23T15:37:06.031Z,1001.94
2017-11-23T15:38:28.089Z,1001.96
2017-11-23T15:39:50.349Z,1001.96
2017-11-23T15:41:11.799Z,1001.93
2017-11-23T15:42:33.845Z,1001.89
2017-11-23T15:43:55.575Z,1001.98
2017-11-23T15:45:17.855Z,1001.94
2017-11-23T15:46:39.861Z,1001.92
2017-11-23T15:48:01.332Z,1002.03
2017-11-23T15:49:23.486Z,1002.02
2017-11-23T15:50:45.076Z,1002.01
2017-11-23T15:52:07.192Z,1002.1
2017-11-23T15:53:28.746Z,1002.21
2017-11-23T15:54:51.166Z,1002.24
2017-11-23T15:56:13.205Z,1002.68
2017-11-23T15:57:34.929Z,1003.07
2017-11-23T15:58:56.974Z,1003.3
2017-11-23T16:00:19.041Z,1003.34
2017-11-23T16:01:40.881Z,1003.2
2017-11-23T16:03:02.459Z,1003.31
2017-11-23T16:04:23.915Z,1003.3
2017-11-23T16:05:45.370Z,1003.25
2017-11-23T16:07:07.715Z,1003.28
2017-11-23T16:08:29.448Z,1003.28
2017-11-23T16:09:50.900Z,1003.4
2017-11-23T16:11:12.470Z,1003.4
2017-11-23T16:12:33.920Z,1003.5
2017-11-23T16:13:55.994Z,1003.52
2017-11-23T16:15:17.728Z,1003.56
2017-11-23T16:16:39.900Z,1003.6
2017-11-23T16:18:02.395Z,1003.63
2017-11-23T16:19:24.675Z,1003.67
2017-11-23T16:20:46.422Z,1003.68
2017-11-23T16:22:08.948Z,1003.7
2017-11-23T16:23:30.695Z,1003.72
2017-11-23T16:24:52.515Z,1003.79
2017-11-23T16:26:14.048Z,1003.75
2017-11-23T16:27:35.797Z,1003.86
2017-11-23T16:28:57.515Z,1003.82
2017-11-23T16:30:19.364Z,1003.88
2017-11-23T16:31:41.210Z,1003.91
2017-11-23T16:33:02.959Z,1003.93
2017-11-23T16:34:24.750Z,1003.95
2017-11-23T16:35:46.486Z,1003.9
2017-11-23T16:37:07.956Z,1003.94
2017-11-23T16:38:30.244Z,1004.09
2017-11-23T16:39:52.529Z,1004.1
2017-11-23T16:41:14.341Z,1004.12